createdAt,value
2022-10-20T00:01:11.818Z,6.38
2022-10-20T00:03:38.645Z,7.43
2022-10-20T00:06:09.327Z,9.48
2022-10-20T00:08:36.236Z,10.80
2022-10-20T00:11:03.331Z,10.70
2022-10-20T00:13:30.328Z,10.15
2022-10-20T00:15:58.720Z,8.15
2022-10-20T00:18:26.197Z,7.45
2022-10-20T00:20:53.854Z,7.05
2022-10-20T00:23:20.805Z,6.70
2022-10-20T00:25:47.612Z,6.88
2022-10-20T00:28:14.683Z,6.78
2022-10-20T00:30:41.595Z,6.80
2022-10-20T00:33:08.364Z,7.00
2022-10-20T00:35:38.971Z,7.28
2022-10-20T00:38:05.848Z,8.02
2022-10-20T00:40:32.735Z,8.30
2022-10-20T00:42:59.506Z,8.10
2022-10-20T00:45:26.528Z,8.82
2022-10-20T00:47:57.087Z,8.73
2022-10-20T00:50:26.277Z,9.38
2022-10-20T00:52:54.688Z,9.00
2022-10-20T00:55:25.659Z,8.05
2022-10-20T00:57:54.622Z,8.60
2022-10-20T01:00:21.550Z,9.15
2022-10-20T01:02:52.166Z,7.75
2022-10-20T01:05:19.613Z,9.23
2022-10-20T01:07:46.581Z,8.88
2022-10-20T01:10:14.196Z,8.57
2022-10-20T01:13:01.562Z,9.25
2022-10-20T01:15:35.231Z,8.77
2022-10-20T01:18:10.474Z,9.20
2022-10-20T01:20:52.451Z,9.25
2022-10-20T01:23:34.024Z,9.18
2022-10-20T01:26:22.370Z,8.55
2022-10-20T01:28:59.582Z,7.57
2022-10-20T01:31:29.338Z,8.23
2022-10-20T01:34:18.149Z,8.93
2022-10-20T01:36:59.024Z,7.28
2022-10-20T01:39:35.961Z,7.43
2022-10-20T01:42:07.916Z,7.10
2022-10-20T01:47:03.396Z,6.32
2022-10-20T01:49:30.217Z,5.95
2022-10-20T01:51:57.189Z,6.25
2022-10-20T01:54:27.538Z,5.97
2022-10-20T01:57:18.392Z,5.47
2022-10-20T02:00:03.437Z,5.70
2022-10-20T02:03:03.300Z,5.00
2022-10-20T02:05:42.215Z,5.13
2022-10-20T02:08:30.006Z,5.20
2022-10-20T02:11:01.501Z,5.45
2022-10-20T02:13:30.821Z,5.47
2022-10-20T02:16:01.199Z,4.63
2022-10-20T02:18:33.599Z,4.40
2022-10-20T02:21:03.819Z,4.82
2022-10-20T02:23:36.471Z,5.10
2022-10-20T02:26:09.332Z,4.20
2022-10-20T02:31:05.984Z,4.75
2022-10-20T02:33:34.957Z,4.50
2022-10-20T02:36:05.180Z,3.97
2022-10-20T02:38:32.009Z,4.10
2022-10-20T02:40:58.764Z,3.92
2022-10-20T02:43:25.551Z,3.50
2022-10-20T02:45:52.335Z,3.47
2022-10-20T02:48:19.068Z,2.97
2022-10-20T02:50:45.818Z,3.50
2022-10-20T02:53:12.647Z,3.97
2022-10-20T02:55:39.384Z,3.78
2022-10-20T02:58:06.133Z,3.97
2022-10-20T03:00:32.988Z,3.75
2022-10-20T03:02:59.778Z,4.13
2022-10-20T03:05:27.185Z,3.70
2022-10-20T03:07:54.180Z,4.70
2022-10-20T03:10:21.355Z,5.07
2022-10-20T03:12:48.260Z,4.85
2022-10-20T03:15:15.114Z,4.53
2022-10-20T03:17:41.888Z,4.60
2022-10-20T03:20:09.166Z,4.03
2022-10-20T03:22:35.884Z,4.63
2022-10-20T03:25:02.677Z,4.25
2022-10-20T03:27:29.448Z,4.65
2022-10-20T03:29:56.245Z,3.78
2022-10-20T03:32:22.976Z,3.88
2022-10-20T03:34:49.764Z,3.88
2022-10-20T03:37:16.470Z,4.63
2022-10-20T03:39:43.176Z,4.50
2022-10-20T03:42:09.942Z,4.75
2022-10-20T03:44:36.669Z,4.05
2022-10-20T03:47:03.511Z,3.50
2022-10-20T03:49:33.025Z,3.80
2022-10-20T03:52:00.459Z,3.90
2022-10-20T03:54:27.184Z,4.20
2022-10-20T03:56:53.925Z,4.30
2022-10-20T03:59:20.689Z,4.47
2022-10-20T04:01:47.827Z,4.20
2022-10-20T04:04:15.074Z,5.10
2022-10-20T04:06:41.867Z,4.80
2022-10-20T04:09:08.715Z,4.20
2022-10-20T04:11:35.580Z,5.03
2022-10-20T04:14:02.322Z,4.93
2022-10-20T04:16:29.068Z,4.90
2022-10-20T04:18:56.657Z,4.72
2022-10-20T04:21:23.413Z,4.43
2022-10-20T04:23:50.152Z,4.75
2022-10-20T04:26:17.026Z,5.03
2022-10-20T04:28:44.090Z,4.75
2022-10-20T04:31:10.885Z,4.78
2022-10-20T04:33:37.679Z,4.38
2022-10-20T04:36:07.528Z,4.88
2022-10-20T04:38:35.205Z,4.05
2022-10-20T04:41:04.463Z,4.45
2022-10-20T04:43:32.847Z,4.47
2022-10-20T04:46:03.879Z,4.40
2022-10-20T04:48:34.029Z,4.20
2022-10-20T04:51:02.678Z,4.88
2022-10-20T04:53:29.630Z,5.28
2022-10-20T04:55:59.691Z,4.97
2022-10-20T04:58:26.679Z,4.60
2022-10-20T05:00:53.634Z,4.68
2022-10-20T05:03:21.025Z,5.80
2022-10-20T05:05:48.420Z,6.28
2022-10-20T05:08:15.288Z,6.30
2022-10-20T05:10:42.121Z,6.85
2022-10-20T05:13:09.184Z,5.90
2022-10-20T05:15:35.926Z,6.03
2022-10-20T05:18:02.756Z,6.47
2022-10-20T05:20:33.523Z,6.00
2022-10-20T05:23:07.832Z,6.20
2022-10-20T05:25:37.272Z,6.40
2022-10-20T05:28:05.255Z,7.05
2022-10-20T05:30:34.090Z,6.75
2022-10-20T05:33:00.983Z,6.30
2022-10-20T05:35:28.741Z,5.68
2022-10-20T05:37:56.015Z,6.38
2022-10-20T05:40:23.487Z,6.32
2022-10-20T05:42:50.362Z,6.65
2022-10-20T05:45:17.468Z,6.28
2022-10-20T05:47:44.260Z,6.15
2022-10-20T05:50:11.447Z,6.18
2022-10-20T05:52:38.514Z,5.13
2022-10-20T05:55:05.911Z,6.25
2022-10-20T05:57:32.690Z,6.53
2022-10-20T05:59:59.419Z,6.57
2022-10-20T06:02:26.212Z,6.88
2022-10-20T06:04:52.997Z,5.68
2022-10-20T06:07:19.843Z,6.68
2022-10-20T06:09:46.588Z,6.72
2022-10-20T06:12:13.319Z,6.03
2022-10-20T06:14:40.066Z,6.40
2022-10-20T06:17:06.789Z,6.80
2022-10-20T06:19:33.679Z,6.88
2022-10-20T06:22:03.975Z,6.88
2022-10-20T06:24:33.920Z,7.70
2022-10-20T06:27:00.703Z,6.28
2022-10-20T06:29:27.605Z,7.18
2022-10-20T06:31:55.760Z,7.10
2022-10-20T06:34:24.593Z,7.47
2022-10-20T06:36:51.930Z,7.00
2022-10-20T06:39:21.795Z,7.32
2022-10-20T06:41:50.539Z,7.88
2022-10-20T06:44:18.920Z,6.80
2022-10-20T06:46:45.991Z,7.82
2022-10-20T06:49:13.474Z,8.10
2022-10-20T06:51:40.945Z,8.07
2022-10-20T06:54:08.096Z,8.93
2022-10-20T06:56:35.830Z,8.32
2022-10-20T06:59:03.881Z,8.98
2022-10-20T07:01:33.550Z,9.88
2022-10-20T07:04:06.748Z,11.02
2022-10-20T07:06:36.535Z,12.50
2022-10-20T07:09:05.163Z,13.80
2022-10-20T07:11:32.825Z,12.95
2022-10-20T07:14:00.661Z,12.07
2022-10-20T07:16:30.149Z,14.73
2022-10-20T07:18:57.685Z,13.35
2022-10-20T07:21:32.532Z,12.85
2022-10-20T07:24:04.494Z,13.13
2022-10-20T07:26:33.822Z,13.18
2022-10-20T07:29:02.919Z,13.85
2022-10-20T07:31:38.778Z,19.15
2022-10-20T07:34:23.922Z,20.13
2022-10-20T07:36:51.609Z,21.58
2022-10-20T07:39:18.370Z,21.52
2022-10-20T07:41:47.381Z,21.23
2022-10-20T07:44:14.580Z,23.42
2022-10-20T07:46:41.397Z,25.30
2022-10-20T07:51:55.025Z,27.50
2022-10-20T07:54:21.990Z,27.02
2022-10-20T07:56:49.440Z,26.88
2022-10-20T07:59:16.617Z,26.77
2022-10-20T08:01:44.058Z,24.98
2022-10-20T08:04:11.487Z,25.85
2022-10-20T08:06:39.120Z,27.98
2022-10-20T08:09:07.411Z,23.50
2022-10-20T08:11:34.948Z,23.40
2022-10-20T08:14:01.687Z,21.73
2022-10-20T08:16:37.345Z,21.05
2022-10-20T08:19:26.617Z,22.33
2022-10-20T08:21:53.508Z,22.15
2022-10-20T08:24:20.568Z,20.52
2022-10-20T08:26:47.627Z,21.52
2022-10-20T08:29:14.818Z,22.05
2022-10-20T08:31:43.363Z,21.27
2022-10-20T08:34:10.619Z,20.15
2022-10-20T08:36:37.398Z,17.83
2022-10-20T08:39:06.153Z,16.65
2022-10-20T08:41:55.459Z,17.33
2022-10-20T08:44:31.669Z,17.48
2022-10-20T08:47:01.200Z,17.90
2022-10-20T08:49:33.696Z,18.27
2022-10-20T08:52:01.687Z,18.58
2022-10-20T08:54:28.982Z,17.13
2022-10-20T08:56:55.861Z,17.60
2022-10-20T08:59:22.542Z,17.35
2022-10-20T09:01:49.426Z,17.25
2022-10-20T09:04:39.361Z,18.77
2022-10-20T09:07:28.577Z,16.83
2022-10-20T09:10:04.198Z,17.73
2022-10-20T09:12:33.496Z,17.55
2022-10-20T09:15:01.075Z,18.27
2022-10-20T09:17:28.080Z,17.05
2022-10-20T09:20:00.425Z,17.42
2022-10-20T09:22:34.748Z,18.30
2022-10-20T09:25:03.270Z,17.15
2022-10-20T09:27:33.745Z,18.20
2022-10-20T09:30:21.317Z,17.27
2022-10-20T09:32:49.380Z,15.90
2022-10-20T09:35:32.961Z,16.75
2022-10-20T09:38:02.970Z,16.90
2022-10-20T09:40:30.194Z,17.92
2022-10-20T09:43:02.416Z,15.85
2022-10-20T09:45:32.587Z,16.50
2022-10-20T09:48:05.311Z,16.50
2022-10-20T09:50:40.645Z,15.85
2022-10-20T09:53:19.972Z,16.63
2022-10-20T09:55:49.268Z,16.40
2022-10-20T09:58:42.663Z,15.70
2022-10-20T10:01:12.169Z,15.43
2022-10-20T10:03:50.243Z,16.80
2022-10-20T10:06:39.049Z,15.95
2022-10-20T10:12:03.222Z,15.32
2022-10-20T10:14:33.295Z,15.80
2022-10-20T10:17:01.100Z,14.00
2022-10-20T10:19:31.118Z,15.68
2022-10-20T10:22:01.451Z,19.10
2022-10-20T10:24:34.089Z,18.38
2022-10-20T10:27:03.453Z,16.33
2022-10-20T10:29:39.058Z,15.35
2022-10-20T10:32:25.931Z,14.48
2022-10-20T10:35:17.273Z,14.88
2022-10-20T10:37:46.174Z,14.20
2022-10-20T10:40:18.734Z,13.75
2022-10-20T10:43:17.473Z,13.50
2022-10-20T10:45:46.621Z,11.80
2022-10-20T10:48:41.404Z,12.63
2022-10-20T10:51:29.994Z,12.23
2022-10-20T10:54:35.826Z,11.73
2022-10-20T10:57:41.771Z,12.05
2022-10-20T11:00:17.667Z,11.35
2022-10-20T11:03:12.119Z,11.55
2022-10-20T11:05:51.050Z,11.27
2022-10-20T11:08:20.491Z,11.38
2022-10-20T11:11:06.073Z,11.57
2022-10-20T11:13:52.163Z,11.65
2022-10-20T11:16:26.606Z,11.50
2022-10-20T11:19:12.172Z,10.65
2022-10-20T11:22:02.626Z,10.88
2022-10-20T11:24:48.123Z,11.77
2022-10-20T11:27:22.348Z,10.00
2022-10-20T11:30:09.067Z,10.55
2022-10-20T11:33:13.012Z,10.73
2022-10-20T11:35:45.576Z,10.80
2022-10-20T11:38:34.992Z,11.00
2022-10-20T11:41:17.119Z,10.27
2022-10-20T11:44:07.401Z,11.40
2022-10-20T11:46:40.245Z,10.63
2022-10-20T11:49:08.425Z,11.35
2022-10-20T11:52:09.951Z,10.40
2022-10-20T11:54:51.200Z,9.95
2022-10-20T11:57:24.659Z,10.60
2022-10-20T11:59:51.445Z,10.30
2022-10-20T12:02:45.253Z,10.55
2022-10-20T12:05:30.205Z,9.70
2022-10-20T12:08:24.531Z,9.55
2022-10-20T12:11:16.029Z,9.25
2022-10-20T12:13:51.636Z,8.57
2022-10-20T12:16:52.647Z,8.60
2022-10-20T12:19:25.597Z,10.43
2022-10-20T12:22:14.360Z,8.80
2022-10-20T12:25:02.836Z,10.23
2022-10-20T12:27:30.375Z,11.50
2022-10-20T12:30:38.326Z,9.18
2022-10-20T12:33:18.661Z,9.63
2022-10-20T12:35:59.540Z,8.82
2022-10-20T12:38:28.296Z,8.32
2022-10-20T12:40:58.104Z,8.52
2022-10-20T12:43:32.415Z,8.50
2022-10-20T12:46:06.612Z,8.93
2022-10-20T12:48:38.641Z,8.70
2022-10-20T12:51:23.588Z,8.60
2022-10-20T12:53:58.323Z,33.95
2022-10-20T12:56:27.874Z,8.75
2022-10-20T12:59:30.216Z,8.93
2022-10-20T13:02:08.986Z,8.45
2022-10-20T13:05:13.398Z,8.27
2022-10-20T13:07:48.846Z,8.02
2022-10-20T13:10:28.238Z,7.80
2022-10-20T13:13:17.757Z,8.00
2022-10-20T13:15:44.468Z,7.82
2022-10-20T13:18:13.860Z,7.88
2022-10-20T13:21:11.779Z,8.35
2022-10-20T13:23:48.024Z,8.45
2022-10-20T13:26:28.460Z,8.80
2022-10-20T13:29:00.768Z,8.25
2022-10-20T13:31:42.043Z,8.02
2022-10-20T13:34:23.266Z,10.25
2022-10-20T13:37:08.451Z,9.27
2022-10-20T13:39:52.635Z,7.72
2022-10-20T13:42:28.913Z,7.70
2022-10-20T13:45:31.024Z,8.88
2022-10-20T13:47:57.844Z,15.38
2022-10-20T13:50:32.445Z,13.18
2022-10-20T13:53:05.278Z,8.05
2022-10-20T13:55:51.989Z,8.93
2022-10-20T13:58:23.233Z,7.57
2022-10-20T14:01:26.932Z,8.32
2022-10-20T14:03:54.077Z,8.82
2022-10-20T14:06:38.078Z,7.47
2022-10-20T14:09:16.046Z,8.43
2022-10-20T14:11:45.699Z,7.70
2022-10-20T14:14:15.840Z,8.60
2022-10-20T14:16:51.611Z,7.55
2022-10-20T14:19:23.191Z,7.80
2022-10-20T14:24:26.406Z,7.35
2022-10-20T14:26:54.701Z,7.25
2022-10-20T14:29:24.263Z,6.93
2022-10-20T14:31:51.658Z,7.28
2022-10-20T14:34:21.266Z,7.15
2022-10-20T14:36:50.356Z,9.38
2022-10-20T14:39:36.701Z,7.55
2022-10-20T14:42:25.155Z,7.60
2022-10-20T14:44:53.228Z,6.93
2022-10-20T14:47:23.048Z,7.75
2022-10-20T14:49:55.717Z,7.38
2022-10-20T14:52:35.535Z,7.30
2022-10-20T14:55:02.644Z,7.00
2022-10-20T14:57:39.443Z,7.90
2022-10-20T15:00:27.670Z,7.68
2022-10-20T15:02:57.252Z,8.13
2022-10-20T15:05:29.161Z,7.40
2022-10-20T15:07:56.135Z,7.43
2022-10-20T15:10:25.652Z,7.50
2022-10-20T15:12:55.680Z,6.78
2022-10-20T15:15:36.044Z,7.80
2022-10-20T15:18:18.352Z,7.60
2022-10-20T15:20:49.651Z,7.07
2022-10-20T15:23:16.547Z,7.70
2022-10-20T15:26:04.267Z,8.65
2022-10-20T15:28:36.772Z,8.18
2022-10-20T15:31:07.192Z,8.13
2022-10-20T15:33:34.222Z,9.50
2022-10-20T15:36:01.839Z,8.90
2022-10-20T15:38:28.807Z,7.80
2022-10-20T15:40:55.668Z,8.10
2022-10-20T15:43:25.231Z,7.82
2022-10-20T15:45:56.747Z,8.68
2022-10-20T15:48:28.871Z,8.40
2022-10-20T15:50:59.128Z,7.50
2022-10-20T15:53:25.869Z,7.72
2022-10-20T15:55:52.615Z,8.38
2022-10-20T15:58:19.700Z,8.80
2022-10-20T16:00:46.592Z,9.50
2022-10-20T16:03:17.207Z,9.52
2022-10-20T16:05:45.066Z,9.70
2022-10-20T16:08:12.135Z,9.75
2022-10-20T16:10:39.105Z,10.25
2022-10-20T16:13:06.415Z,10.10
2022-10-20T16:15:33.272Z,10.07
2022-10-20T16:18:00.062Z,10.13
2022-10-20T16:20:27.112Z,10.10
2022-10-20T16:22:54.137Z,9.95
2022-10-20T16:25:20.921Z,10.77
2022-10-20T16:27:47.690Z,10.43
2022-10-20T16:30:16.641Z,10.50
2022-10-20T16:32:43.377Z,11.98
2022-10-20T16:35:10.353Z,10.48
2022-10-20T16:37:37.386Z,11.50
2022-10-20T16:40:08.160Z,11.88
2022-10-20T16:42:34.931Z,12.18
2022-10-20T16:45:02.066Z,11.32
2022-10-20T16:47:28.864Z,10.52
2022-10-20T16:49:55.603Z,10.63
2022-10-20T16:52:24.625Z,12.55
2022-10-20T16:54:51.542Z,12.57
2022-10-20T16:57:18.359Z,12.63
2022-10-20T16:59:50.144Z,12.70
2022-10-20T17:04:49.098Z,12.68
2022-10-20T17:07:17.192Z,12.93
2022-10-20T17:09:44.126Z,12.65
2022-10-20T17:12:11.053Z,14.00
2022-10-20T17:14:40.610Z,14.07
2022-10-20T17:17:07.419Z,13.20
2022-10-20T17:19:37.378Z,12.90
2022-10-20T17:22:04.279Z,14.25
2022-10-20T17:24:33.707Z,14.63
2022-10-20T17:27:00.499Z,15.63
2022-10-20T17:29:27.337Z,14.32
2022-10-20T17:31:54.228Z,15.02
2022-10-20T17:34:21.082Z,16.60
2022-10-20T17:36:47.813Z,14.35
2022-10-20T17:39:16.753Z,14.15
2022-10-20T17:41:43.741Z,14.10
2022-10-20T17:44:13.570Z,14.40
2022-10-20T17:46:42.681Z,14.98
2022-10-20T17:49:09.476Z,14.90
2022-10-20T17:51:36.265Z,15.13
2022-10-20T17:54:03.742Z,14.52
2022-10-20T17:56:36.853Z,13.70
2022-10-20T17:59:09.082Z,15.60
2022-10-20T18:01:38.613Z,15.65
2022-10-20T18:04:13.554Z,14.95
2022-10-20T18:06:41.465Z,13.07
2022-10-20T18:09:11.289Z,12.80
2022-10-20T18:11:40.035Z,13.02
2022-10-20T18:14:06.949Z,13.27
2022-10-20T18:16:35.529Z,12.60
2022-10-20T18:19:03.577Z,12.82
2022-10-20T18:21:31.728Z,12.98
2022-10-20T18:24:02.387Z,12.65
2022-10-20T18:26:32.246Z,13.07
2022-10-20T18:29:00.268Z,12.23
2022-10-20T18:31:30.648Z,12.25
2022-10-20T18:34:04.291Z,13.48
2022-10-20T18:36:34.183Z,13.52
2022-10-20T18:39:01.466Z,13.07
2022-10-20T18:41:30.574Z,13.48
2022-10-20T18:44:00.361Z,13.88
2022-10-20T18:46:28.824Z,12.95
2022-10-20T18:48:56.401Z,12.50
2022-10-20T18:51:24.063Z,13.63
2022-10-20T18:53:56.370Z,12.70
2022-10-20T18:56:25.291Z,12.10
2022-10-20T18:58:53.183Z,13.45
2022-10-20T19:01:24.503Z,12.70
2022-10-20T19:03:53.581Z,13.32
2022-10-20T19:06:23.958Z,13.02
2022-10-20T19:08:55.802Z,13.05
2022-10-20T19:13:51.196Z,13.80
2022-10-20T19:16:21.277Z,13.43
2022-10-20T19:18:50.059Z,12.95
2022-10-20T19:21:18.221Z,14.13
2022-10-20T19:23:49.224Z,13.50
2022-10-20T19:26:33.597Z,14.43
2022-10-20T19:29:09.029Z,13.52
2022-10-20T19:31:44.614Z,13.93
2022-10-20T19:34:15.300Z,14.63
2022-10-20T19:36:42.810Z,13.75
2022-10-20T19:39:11.535Z,13.55
2022-10-20T19:41:38.539Z,12.77
2022-10-20T19:44:06.312Z,13.40
2022-10-20T19:46:33.339Z,13.50
2022-10-20T19:49:00.149Z,13.98
2022-10-20T19:51:26.937Z,14.43
2022-10-20T19:53:53.725Z,13.55
2022-10-20T19:56:20.609Z,14.63
2022-10-20T19:58:48.507Z,14.25
2022-10-20T20:01:16.949Z,16.02
2022-10-20T20:03:44.826Z,14.45
2022-10-20T20:06:17.755Z,13.60
2022-10-20T20:08:50.593Z,14.15
2022-10-20T20:11:26.408Z,13.70
2022-10-20T20:14:02.877Z,13.82
2022-10-20T20:16:30.199Z,14.25
2022-10-20T20:18:57.255Z,15.55
2022-10-20T20:21:25.301Z,14.50
2022-10-20T20:24:00.708Z,14.80
2022-10-20T20:26:29.564Z,14.13
2022-10-20T20:28:57.326Z,14.20
2022-10-20T20:31:24.859Z,13.60
2022-10-20T20:33:52.674Z,13.80
2022-10-20T20:36:20.081Z,14.38
2022-10-20T20:38:47.149Z,14.70
2022-10-20T20:41:16.737Z,13.95
2022-10-20T20:43:45.343Z,13.85
2022-10-20T20:46:17.415Z,14.38
2022-10-20T20:48:44.524Z,14.48
2022-10-20T20:51:12.614Z,14.68
2022-10-20T20:53:40.037Z,15.30
2022-10-20T20:56:12.309Z,14.85
2022-10-20T20:58:41.824Z,14.98
2022-10-20T21:01:15.562Z,15.55
2022-10-20T21:03:43.928Z,16.05
2022-10-20T21:06:13.540Z,15.85
2022-10-20T21:08:42.917Z,15.43
2022-10-20T21:11:18.371Z,15.27
2022-10-20T21:13:46.679Z,16.13
2022-10-20T21:16:14.742Z,15.30
2022-10-20T21:18:44.199Z,15.63
2022-10-20T21:21:14.230Z,16.25
2022-10-20T21:23:41.823Z,15.38
2022-10-20T21:26:10.550Z,15.88
2022-10-20T21:28:37.368Z,15.32
2022-10-20T21:31:06.854Z,15.63
2022-10-20T21:33:35.253Z,15.80
2022-10-20T21:36:10.044Z,15.70
2022-10-20T21:38:37.951Z,16.15
2022-10-20T21:41:13.385Z,15.48
2022-10-20T21:43:43.987Z,16.15
2022-10-20T21:46:19.649Z,16.33
2022-10-20T21:48:48.868Z,16.67
2022-10-20T21:51:27.569Z,16.63
2022-10-20T21:53:58.775Z,15.60
2022-10-20T21:56:26.014Z,16.23
2022-10-20T21:58:53.550Z,16.55
2022-10-20T22:01:22.827Z,16.13
2022-10-20T22:03:51.379Z,16.50
2022-10-20T22:06:21.843Z,17.05
2022-10-20T22:08:53.746Z,17.13
2022-10-20T22:13:49.300Z,15.63
2022-10-20T22:16:19.472Z,15.95
2022-10-20T22:18:46.461Z,16.55
2022-10-20T22:21:16.438Z,16.40
2022-10-20T22:23:44.635Z,15.88
2022-10-20T22:26:12.348Z,17.30
2022-10-20T22:28:40.194Z,17.00
2022-10-20T22:31:07.854Z,17.83
2022-10-20T22:33:36.236Z,16.20
2022-10-20T22:36:04.081Z,16.55
2022-10-20T22:38:31.127Z,17.23
2022-10-20T22:40:59.334Z,17.35
2022-10-20T22:43:26.778Z,17.33
2022-10-20T22:45:53.578Z,17.92
2022-10-20T22:48:20.697Z,18.65
2022-10-20T22:50:47.566Z,17.50
2022-10-20T22:53:14.375Z,17.40
2022-10-20T22:55:41.293Z,17.65
2022-10-20T22:58:08.071Z,17.90
2022-10-20T23:00:34.861Z,17.50
2022-10-20T23:03:01.656Z,17.75
2022-10-20T23:05:28.393Z,16.90
2022-10-20T23:07:55.109Z,16.50
2022-10-20T23:10:21.984Z,18.17
2022-10-20T23:12:48.719Z,17.00
2022-10-20T23:15:15.514Z,15.90
2022-10-20T23:17:42.299Z,17.75
2022-10-20T23:20:09.546Z,18.23
2022-10-20T23:22:36.280Z,17.33
2022-10-20T23:25:03.087Z,16.75
2022-10-20T23:27:33.268Z,16.80
2022-10-20T23:30:00.054Z,16.27
2022-10-20T23:32:26.828Z,16.65
2022-10-20T23:34:53.751Z,16.70
2022-10-20T23:37:21.770Z,17.48
2022-10-20T23:39:48.494Z,16.70
2022-10-20T23:42:15.237Z,16.45
2022-10-20T23:44:43.052Z,17.10
2022-10-20T23:47:09.792Z,16.92
2022-10-20T23:49:36.526Z,17.92
2022-10-20T23:52:03.329Z,16.75
2022-10-20T23:54:30.158Z,16.85
2022-10-20T23:56:56.946Z,17.08
2022-10-20T23:59:23.723Z,17.75
